Time;durP1;ratioP1;P1;durP2;ratioP2;P2;SDS_P1;SDS_P2;PMS_P1;PMS_P2;Temp;Humidity;BMP_temperature;BMP_pressure;BME280_temperature;BME280_humidity;BME280_pressure;Samples;Min_cycle;Max_cycle;Signal;HPM_P1;HPM_P2
2021/08/11 00:01:34;;;;;;;32.67;25.52;;;;;;;;;;5074473;28;20063;-63
2021/08/11 00:04:00;;;;;;;32.30;25.95;;;;;;;;;;5074748;28;20025;-61
2021/08/11 00:06:26;;;;;;;34.38;27.42;;;;;;;;;;5073474;28;20521;-61
2021/08/11 00:08:52;;;;;;;30.45;25.13;;;;;;;;;;5074276;28;20571;-61
2021/08/11 00:11:18;;;;;;;30.98;26.10;;;;;;;;;;5074251;28;20024;-62
2021/08/11 00:13:44;;;;;;;32.65;28.08;;;;;;;;;;5074167;28;20028;-61
2021/08/11 00:16:10;;;;;;;29.10;24.80;;;;;;;;;;5073448;28;20032;-63
2021/08/11 00:18:37;;;;;;;34.60;28.85;;;;;;;;;;5072852;28;20082;-62
2021/08/11 00:21:05;;;;;;;33.17;26.58;;;;;;;;;;5074001;28;20039;-62
2021/08/11 00:23:31;;;;;;;34.78;28.42;;;;;;;;;;5074242;28;20070;-62
2021/08/11 00:25:57;;;;;;;36.45;27.75;;;;;;;;;;5072310;28;20385;-63
2021/08/11 00:28:24;;;;;;;37.08;30.67;;;;;;;;;;5072510;28;20024;-63
2021/08/11 00:30:51;;;;;;;34.75;27.60;;;;;;;;;;5073929;28;20374;-63
2021/08/11 00:33:17;;;;;;;34.47;28.25;;;;;;;;;;5074085;28;20103;-61
2021/08/11 00:35:43;;;;;;;34.28;29.02;;;;;;;;;;5071923;28;20115;-60
2021/08/11 00:38:09;;;;;;;36.50;29.27;;;;;;;;;;5072694;28;20017;-61
2021/08/11 00:40:35;;;;;;;38.67;28.75;;;;;;;;;;5073775;28;20496;-62
2021/08/11 00:43:05;;;;;;;36.35;30.00;;;;;;;;;;5072457;28;20048;-63
2021/08/11 00:45:31;;;;;;;34.65;28.63;;;;;;;;;;5072847;28;20021;-63
2021/08/11 00:47:57;;;;;;;36.53;30.10;;;;;;;;;;5073667;28;20029;-62
2021/08/11 00:50:23;;;;;;;36.42;29.48;;;;;;;;;;5073413;28;20032;-62
2021/08/11 00:52:49;;;;;;;38.20;30.40;;;;;;;;;;5072139;28;20021;-63
2021/08/11 00:55:16;;;;;;;36.08;28.77;;;;;;;;;;5072804;28;20033;-63
2021/08/11 00:57:42;;;;;;;35.33;28.05;;;;;;;;;;5073495;28;20027;-61
2021/08/11 01:00:09;;;;;;;35.35;28.98;;;;;;;;;;5073114;28;20036;-62
2021/08/11 01:02:37;;;;;;;36.88;28.80;;;;;;;;;;5073380;28;20025;-63
2021/08/11 01:05:03;;;;;;;36.00;28.88;;;;;;;;;;5071826;28;20542;-63
2021/08/11 01:07:30;;;;;;;34.58;28.80;;;;;;;;;;5072622;28;20035;-61
2021/08/11 01:09:56;;;;;;;35.58;29.77;;;;;;;;;;5071781;28;20029;-63
2021/08/11 01:12:25;;;;;;;35.45;28.17;;;;;;;;;;5073086;28;20526;-61
2021/08/11 01:14:52;;;;;;;38.35;30.42;;;;;;;;;;5072860;28;20021;-63
2021/08/11 01:17:23;;;;;;;36.80;30.42;;;;;;;;;;5072341;28;20449;-63
2021/08/11 01:19:49;;;;;;;41.50;31.30;;;;;;;;;;5073056;28;20035;-63
2021/08/11 01:22:22;;;;;;;40.05;30.63;;;;;;;;;;5073202;28;20082;-63
2021/08/11 01:25:03;;;;;;;38.50;31.23;;;;;;;;;;5071801;28;20032;-63
2021/08/11 01:27:32;;;;;;;36.70;28.92;;;;;;;;;;5071167;28;20035;-63
2021/08/11 01:30:05;;;;;;;41.63;31.92;;;;;;;;;;5072703;28;20366;-63
2021/08/11 01:32:50;;;;;;;42.70;31.42;;;;;;;;;;5072684;28;20500;-63
2021/08/11 01:35:18;;;;;;;43.53;31.05;;;;;;;;;;5072080;28;20111;-62
2021/08/11 01:37:45;;;;;;;38.00;29.67;;;;;;;;;;5072746;28;20024;-62
2021/08/11 01:40:14;;;;;;;35.80;30.65;;;;;;;;;;5071243;28;20484;-63
2021/08/11 01:42:41;;;;;;;39.13;29.30;;;;;;;;;;5071248;28;20052;-61
2021/08/11 01:45:10;;;;;;;38.47;31.25;;;;;;;;;;5071960;28;20644;-62
2021/08/11 01:47:39;;;;;;;38.90;31.60;;;;;;;;;;5072488;28;20032;-62
2021/08/11 01:50:05;;;;;;;38.40;31.05;;;;;;;;;;5072282;28;20478;-62
2021/08/11 01:52:33;;;;;;;40.80;29.85;;;;;;;;;;5072397;28;20480;-62
2021/08/11 01:54:59;;;;;;;37.65;28.67;;;;;;;;;;5072180;28;20020;-63
2021/08/11 01:57:25;;;;;;;39.53;30.52;;;;;;;;;;5071697;28;20107;-62
2021/08/11 01:59:51;;;;;;;39.15;30.38;;;;;;;;;;5071645;28;20408;-62
2021/08/11 02:02:17;;;;;;;40.58;29.85;;;;;;;;;;5072229;28;20410;-63
2021/08/11 02:04:44;;;;;;;38.33;31.10;;;;;;;;;;5070718;28;20029;-62
2021/08/11 02:07:11;;;;;;;43.92;31.05;;;;;;;;;;5071552;28;20080;-63
2021/08/11 02:09:37;;;;;;;38.53;31.10;;;;;;;;;;5071865;28;20038;-63
2021/08/11 02:12:03;;;;;;;40.15;30.70;;;;;;;;;;5070733;28;20078;-63
2021/08/11 02:14:29;;;;;;;39.42;30.13;;;;;;;;;;5071950;28;20028;-63
2021/08/11 02:16:55;;;;;;;38.03;30.20;;;;;;;;;;5071229;28;20409;-63
2021/08/11 02:19:21;;;;;;;39.25;29.25;;;;;;;;;;5071680;28;20082;-62
2021/08/11 02:21:47;;;;;;;37.53;29.30;;;;;;;;;;5070736;28;20028;-63
2021/08/11 02:24:13;;;;;;;36.97;29.30;;;;;;;;;;5071810;28;20440;-63
2021/08/11 02:26:56;;;;;;;39.92;30.20;;;;;;;;;;5071188;28;20024;-63
2021/08/11 02:29:26;;;;;;;43.70;30.67;;;;;;;;;;5070348;28;20033;-63
2021/08/11 02:32:16;;;;;;;57.38;31.35;;;;;;;;;;5071550;28;20100;-62
2021/08/11 02:35:02;;;;;;;52.20;31.00;;;;;;;;;;5070106;28;20042;-63
2021/08/11 02:37:33;;;;;;;106.57;38.50;;;;;;;;;;5069298;28;20400;-63
2021/08/11 02:40:09;;;;;;;193.95;42.08;;;;;;;;;;5071416;28;20028;-63
2021/08/11 02:42:38;;;;;;;126.72;38.22;;;;;;;;;;5071686;28;20496;-63
2021/08/11 02:45:05;;;;;;;169.85;39.08;;;;;;;;;;5071575;28;20025;-63
2021/08/11 02:47:34;;;;;;;115.65;36.97;;;;;;;;;;5071492;28;20047;-63
2021/08/11 02:50:01;;;;;;;211.18;44.42;;;;;;;;;;5071350;28;20048;-63
2021/08/11 02:52:27;;;;;;;93.95;36.40;;;;;;;;;;5070219;28;20515;-63
2021/08/11 02:54:53;;;;;;;108.00;37.13;;;;;;;;;;5071243;28;20032;-62
2021/08/11 02:57:20;;;;;;;100.63;37.58;;;;;;;;;;5070810;28;20104;-63
2021/08/11 02:59:47;;;;;;;76.90;33.05;;;;;;;;;;5069394;28;20450;-63
2021/08/11 03:02:13;;;;;;;87.80;32.88;;;;;;;;;;5069589;28;20021;-63
2021/08/11 03:04:40;;;;;;;55.58;31.25;;;;;;;;;;5069590;28;20031;-63
2021/08/11 03:07:06;;;;;;;121.00;37.65;;;;;;;;;;5069039;28;20040;-64
2021/08/11 03:09:33;;;;;;;63.88;32.28;;;;;;;;;;5071094;28;20035;-63
2021/08/11 03:12:00;;;;;;;84.53;33.60;;;;;;;;;;5072614;28;20505;-63
2021/08/11 03:14:26;;;;;;;61.40;31.60;;;;;;;;;;5075198;28;20434;-64
2021/08/11 03:16:52;;;;;;;66.35;33.60;;;;;;;;;;5074587;28;20389;-63
2021/08/11 03:19:18;;;;;;;53.28;29.85;;;;;;;;;;5075441;28;20016;-63
2021/08/11 03:21:44;;;;;;;50.00;30.15;;;;;;;;;;5074775;28;20462;-63
2021/08/11 03:24:10;;;;;;;49.20;32.28;;;;;;;;;;5073701;28;20055;-63
2021/08/11 03:26:36;;;;;;;67.90;32.78;;;;;;;;;;5074274;28;20526;-64
2021/08/11 03:29:02;;;;;;;72.88;33.67;;;;;;;;;;5073465;28;20116;-63
2021/08/11 03:31:29;;;;;;;59.33;30.25;;;;;;;;;;5073213;28;20028;-63
2021/08/11 03:33:55;;;;;;;53.90;30.13;;;;;;;;;;5074254;28;20579;-63
2021/08/11 03:36:21;;;;;;;55.45;29.73;;;;;;;;;;5072548;28;20111;-63
2021/08/11 03:38:47;;;;;;;75.57;28.67;;;;;;;;;;5074777;28;20100;-64
2021/08/11 03:41:13;;;;;;;97.28;31.98;;;;;;;;;;5074796;28;20024;-63
2021/08/11 03:43:39;;;;;;;108.30;28.20;;;;;;;;;;5074667;28;20044;-63
2021/08/11 03:46:05;;;;;;;140.23;32.20;;;;;;;;;;5073748;28;20067;-63
2021/08/11 03:48:31;;;;;;;68.30;29.45;;;;;;;;;;5074533;28;20028;-63
2021/08/11 03:50:57;;;;;;;103.18;31.65;;;;;;;;;;5073237;28;20074;-63
2021/08/11 03:53:23;;;;;;;105.15;28.85;;;;;;;;;;5073282;28;20460;-63
2021/08/11 03:55:49;;;;;;;110.15;31.85;;;;;;;;;;5073770;28;20032;-63
2021/08/11 03:58:15;;;;;;;103.50;29.67;;;;;;;;;;5073210;28;20069;-63
2021/08/11 04:00:41;;;;;;;121.78;32.17;;;;;;;;;;5074235;28;20033;-63
2021/08/11 04:03:07;;;;;;;118.10;31.98;;;;;;;;;;5073644;28;20476;-63
2021/08/11 04:05:33;;;;;;;100.53;32.40;;;;;;;;;;5073678;28;20035;-63
2021/08/11 04:07:59;;;;;;;117.78;33.50;;;;;;;;;;5074077;28;20020;-63
2021/08/11 04:10:25;;;;;;;114.63;33.65;;;;;;;;;;5072789;28;20036;-62
2021/08/11 04:12:51;;;;;;;130.00;38.67;;;;;;;;;;5074206;28;20081;-63
2021/08/11 04:15:17;;;;;;;81.50;32.60;;;;;;;;;;5072199;28;20033;-63
2021/08/11 04:17:43;;;;;;;140.43;40.50;;;;;;;;;;5073951;28;20020;-62
2021/08/11 04:20:10;;;;;;;86.32;35.10;;;;;;;;;;5072500;28;20093;-63
2021/08/11 04:22:36;;;;;;;90.35;33.83;;;;;;;;;;5073607;28;20021;-63
2021/08/11 04:25:02;;;;;;;114.00;37.78;;;;;;;;;;5073188;28;20103;-63
2021/08/11 04:27:28;;;;;;;135.32;36.67;;;;;;;;;;5071980;28;20028;-62
2021/08/11 04:29:54;;;;;;;94.55;34.13;;;;;;;;;;5072590;28;20024;-62
2021/08/11 04:32:20;;;;;;;163.88;36.75;;;;;;;;;;5073583;28;20082;-62
2021/08/11 04:34:47;;;;;;;97.68;34.45;;;;;;;;;;5073496;28;20025;-62
2021/08/11 04:37:13;;;;;;;99.18;32.53;;;;;;;;;;5072921;28;20389;-63
2021/08/11 04:39:39;;;;;;;64.78;32.47;;;;;;;;;;5073596;28;20059;-61
2021/08/11 04:42:05;;;;;;;132.45;39.33;;;;;;;;;;5073527;28;20032;-62
2021/08/11 04:44:31;;;;;;;231.40;46.97;;;;;;;;;;5073438;28;20016;-62
2021/08/11 04:46:58;;;;;;;112.18;37.47;;;;;;;;;;5072715;28;20385;-63
2021/08/11 04:49:24;;;;;;;96.68;38.25;;;;;;;;;;5073265;28;20024;-61
2021/08/11 04:51:50;;;;;;;75.78;35.03;;;;;;;;;;5072079;28;20388;-61
2021/08/11 04:54:16;;;;;;;76.00;37.13;;;;;;;;;;5072202;28;20485;-60
2021/08/11 04:56:42;;;;;;;82.05;34.92;;;;;;;;;;5072620;28;20446;-60
2021/08/11 04:59:08;;;;;;;75.88;35.20;;;;;;;;;;5071848;28;20031;-60
2021/08/11 05:01:34;;;;;;;65.32;33.65;;;;;;;;;;5071786;28;20020;-59
2021/08/11 05:04:00;;;;;;;66.38;35.75;;;;;;;;;;5073170;28;20028;-61
2021/08/11 05:06:26;;;;;;;49.97;32.20;;;;;;;;;;5071343;28;20029;-60
2021/08/11 05:08:52;;;;;;;86.47;35.35;;;;;;;;;;5073096;28;20029;-62
2021/08/11 05:11:18;;;;;;;88.03;38.42;;;;;;;;;;5071602;28;20500;-60
2021/08/11 05:13:44;;;;;;;55.78;34.28;;;;;;;;;;5073012;28;20028;-60
2021/08/11 05:16:10;;;;;;;49.45;34.60;;;;;;;;;;5072164;28;20024;-61
2021/08/11 05:18:36;;;;;;;59.30;33.63;;;;;;;;;;5072529;28;20039;-59
2021/08/11 05:21:02;;;;;;;45.55;32.20;;;;;;;;;;5071368;28;20020;-62
2021/08/11 05:23:28;;;;;;;55.25;32.47;;;;;;;;;;5072932;28;20381;-59
2021/08/11 05:25:54;;;;;;;47.38;32.35;;;;;;;;;;5072102;28;20035;-61
2021/08/11 05:28:20;;;;;;;54.83;32.58;;;;;;;;;;5072631;28;20059;-61
2021/08/11 05:30:46;;;;;;;61.70;35.15;;;;;;;;;;5072302;28;20028;-62
2021/08/11 05:33:12;;;;;;;60.20;35.33;;;;;;;;;;5070987;28;20515;-69
2021/08/11 05:35:38;;;;;;;47.85;33.17;;;;;;;;;;5070763;28;20128;-65
2021/08/11 05:38:05;;;;;;;53.83;33.70;;;;;;;;;;5072391;28;20024;-62
2021/08/11 05:40:31;;;;;;;48.38;33.13;;;;;;;;;;5070915;28;20396;-61
2021/08/11 05:42:57;;;;;;;48.83;33.75;;;;;;;;;;5072217;28;20020;-58
2021/08/11 05:45:23;;;;;;;57.72;34.28;;;;;;;;;;5071737;28;20446;-61
2021/08/11 05:47:49;;;;;;;49.35;34.28;;;;;;;;;;5072009;28;20480;-60
2021/08/11 05:50:15;;;;;;;52.20;33.47;;;;;;;;;;5072451;28;20032;-60
2021/08/11 05:52:41;;;;;;;41.63;33.10;;;;;;;;;;5072254;28;20101;-61
2021/08/11 05:55:07;;;;;;;47.45;35.08;;;;;;;;;;5070011;28;20368;-58
2021/08/11 05:57:37;;;;;;;41.50;32.72;;;;;;;;;;5071893;28;20024;-62
2021/08/11 06:00:03;;;;;;;39.10;31.80;;;;;;;;;;5095247;22;20139;-68
2021/08/11 06:02:29;;;;;;;39.55;32.08;;;;;;;;;;5053280;28;20020;-67
2021/08/11 06:04:55;;;;;;;48.30;32.58;;;;;;;;;;5071288;28;20421;-67
2021/08/11 06:07:21;;;;;;;39.35;31.58;;;;;;;;;;5052068;28;20032;-67
2021/08/11 06:09:47;;;;;;;37.20;29.95;;;;;;;;;;5070901;28;20117;-67
2021/08/11 06:12:13;;;;;;;39.78;29.58;;;;;;;;;;5071115;28;20022;-67
2021/08/11 06:14:39;;;;;;;34.20;28.48;;;;;;;;;;5069681;28;20035;-67
2021/08/11 06:17:05;;;;;;;42.28;28.52;;;;;;;;;;5070277;28;20039;-67
2021/08/11 06:19:31;;;;;;;38.63;29.05;;;;;;;;;;5071095;28;20033;-67
2021/08/11 06:21:57;;;;;;;42.35;30.45;;;;;;;;;;5070671;28;20107;-67
2021/08/11 06:24:23;;;;;;;44.53;28.58;;;;;;;;;;5070940;28;20024;-68
2021/08/11 06:26:49;;;;;;;39.25;28.42;;;;;;;;;;5070209;28;20020;-68
2021/08/11 06:29:15;;;;;;;36.75;29.52;;;;;;;;;;5070971;28;20404;-65
2021/08/11 06:31:41;;;;;;;34.33;28.75;;;;;;;;;;5069492;28;20025;-68
2021/08/11 06:34:07;;;;;;;38.50;27.92;;;;;;;;;;5070807;28;20361;-67
2021/08/11 06:36:33;;;;;;;47.58;27.58;;;;;;;;;;5068218;28;20028;-68
2021/08/11 06:38:59;;;;;;;34.00;27.23;;;;;;;;;;5069077;28;20107;-68
2021/08/11 06:41:25;;;;;;;36.42;26.95;;;;;;;;;;5070283;28;20060;-68
2021/08/11 06:43:51;;;;;;;34.75;28.27;;;;;;;;;;5070460;28;20025;-68
2021/08/11 06:46:17;;;;;;;35.42;27.38;;;;;;;;;;5069475;28;20099;-68
2021/08/11 06:48:43;;;;;;;34.38;28.00;;;;;;;;;;5069029;28;20476;-67
2021/08/11 06:51:09;;;;;;;32.17;27.65;;;;;;;;;;5070036;28;20036;-67
2021/08/11 06:53:36;;;;;;;34.33;26.98;;;;;;;;;;5070227;28;20068;-67
2021/08/11 06:56:02;;;;;;;34.03;27.70;;;;;;;;;;5069735;28;20035;-65
2021/08/11 06:58:28;;;;;;;34.35;28.38;;;;;;;;;;5070183;28;20408;-66
2021/08/11 07:00:56;;;;;;;32.60;27.10;;;;;;;;;;5070060;28;20028;-67
2021/08/11 07:03:22;;;;;;;30.45;25.90;;;;;;;;;;5070372;28;20065;-67
2021/08/11 07:05:49;;;;;;;33.47;27.63;;;;;;;;;;5069509;28;20033;-67
2021/08/11 07:08:15;;;;;;;32.13;28.23;;;22.10;99.90;;;;;;5070317;28;20036;-67
2021/08/11 07:10:40;;;;;;;34.40;29.80;;;16.80;99.90;;;;;;5069927;28;20021;-66
2021/08/11 07:13:06;;;;;;;32.05;26.70;;;;;;;;;;5070304;28;20546;-66
2021/08/11 07:15:32;;;;;;;35.33;29.10;;;;;;;;;;5069437;28;20056;-65
2021/08/11 07:17:59;;;;;;;34.38;28.27;;;;;;;;;;5069971;28;20058;-65
2021/08/11 07:20:26;;;;;;;33.75;29.73;;;;;;;;;;5069798;28;20024;-66
2021/08/11 07:22:52;;;;;;;36.75;29.98;;;;;;;;;;5070126;28;20021;-68
2021/08/11 07:25:19;;;;;;;34.42;30.48;;;;;;;;;;5068178;28;20028;-68
2021/08/11 07:27:45;;;;;;;33.75;30.00;;;;;;;;;;5068660;28;20029;-66
2021/08/11 07:30:14;;;;;;;34.90;28.95;;;;;;;;;;5069998;28;20044;-67
2021/08/11 07:32:42;;;;;;;34.58;28.67;;;;;;;;;;5068840;28;20027;-66
2021/08/11 07:35:08;;;;;;;34.13;29.67;;;;;;;;;;5069521;28;20028;-65
2021/08/11 07:37:43;;;;;;;37.22;29.58;;;;;;;;;;5068667;28;20039;-67
2021/08/11 07:40:12;;;;;;;34.33;29.50;;;;;;;;;;5070006;28;20410;-66
2021/08/11 07:42:38;;;;;;;44.22;33.25;;;;;;;;;;5069817;28;20020;-66
2021/08/11 07:45:04;;;;;;;37.00;31.63;;;;;;;;;;5070122;28;20109;-65
2021/08/11 07:47:30;;;;;;;37.60;33.05;;;;;;;;;;5069161;28;20142;-65
2021/08/11 07:49:57;;;;;;;40.50;34.92;;;;;;;;;;5069636;28;20060;-67
2021/08/11 07:52:23;;;;;;;39.35;34.70;;;;;;;;;;5069573;28;20137;-66
2021/08/11 07:54:49;;;;;;;39.55;35.30;;;;;;;;;;5069550;28;20472;-64
2021/08/11 07:57:15;;;;;;;38.30;33.90;;;;;;;;;;5069231;28;20142;-65
2021/08/11 07:59:41;;;;;;;38.63;33.45;;;;;;;;;;5070016;28;20381;-63
2021/08/11 08:02:10;;;;;;;41.53;35.92;;;;;;;;;;5071779;28;20020;-64
2021/08/11 08:04:37;;;;;;;39.22;34.38;;;;;;;;;;5073342;28;20021;-65
2021/08/11 08:07:03;;;;;;;38.22;33.85;;;;;;;;;;5072557;28;20500;-65
2021/08/11 08:09:29;;;;;;;42.97;34.92;;;;;;;;;;5072808;28;20185;-65
2021/08/11 08:11:55;;;;;;;40.53;35.13;;;;;;;;;;5073028;28;20027;-65
2021/08/11 08:14:21;;;;;;;40.15;34.92;;;;;;;;;;5073253;28;20028;-64
2021/08/11 08:16:47;;;;;;;41.58;34.08;;;;;;;;;;5072366;28;20059;-65
2021/08/11 08:19:13;;;;;;;43.28;35.17;;;;;;;;;;5071775;28;20029;-65
2021/08/11 08:21:39;;;;;;;44.08;37.03;;;;;;;;;;5072741;28;20065;-64
2021/08/11 08:24:05;;;;;;;42.72;36.65;;;;;;;;;;5072926;28;20021;-65
2021/08/11 08:26:31;;;;;;;45.35;37.80;;;;;;;;;;5071225;28;20559;-65
2021/08/11 08:28:57;;;;;;;42.53;37.53;;;;;;;;;;5072588;28;20027;-65
2021/08/11 08:31:23;;;;;;;46.88;39.85;;;;;;;;;;5071527;28;20473;-61
2021/08/11 08:33:49;;;;;;;45.67;37.08;;;;;;;;;;5072790;28;20051;-66
2021/08/11 08:36:15;;;;;;;42.85;35.95;;;;;;;;;;5071864;28;20025;-65
2021/08/11 08:38:41;;;;;;;42.53;37.08;;;;;;;;;;5071584;28;20330;-66
2021/08/11 08:41:07;;;;;;;44.65;37.72;;;;;;;;;;5072442;28;20024;-64
2021/08/11 08:43:33;;;;;;;48.72;41.20;;;;;;;;;;5071121;28;20501;-64
2021/08/11 08:46:00;;;;;;;51.08;42.00;;;;;;;;;;5071429;28;20158;-65
2021/08/11 08:48:27;;;;;;;51.28;40.92;;;;;;;;;;5071041;28;20024;-65
2021/08/11 08:50:53;;;;;;;49.55;41.05;;;;;;;;;;5072546;28;20094;-65
2021/08/11 08:53:23;;;;;;;50.92;40.92;;;;;;;;;;5072616;28;20105;-64
2021/08/11 08:55:49;;;;;;;51.50;41.55;;;;;;;;;;5071726;28;20020;-65
2021/08/11 08:58:15;;;;;;;49.95;40.88;;;;;;;;;;5072460;28;20116;-64
2021/08/11 09:00:41;;;;;;;50.17;41.45;;;;;;;;;;5070619;28;20071;-62
2021/08/11 09:03:07;;;;;;;46.10;39.05;;;;;;;;;;5072454;28;20395;-65
2021/08/11 09:05:33;;;;;;;47.58;38.88;;;;;;;;;;5071864;28;20032;-63
2021/08/11 09:07:59;;;;;;;45.17;37.78;;;;;;;;;;5072122;28;20342;-65
2021/08/11 09:10:30;;;;;;;48.88;37.60;;;;;;;;;;5073797;28;20028;-65
2021/08/11 09:13:06;;;;;;;46.30;38.60;;;;;;;;;;5073630;28;20499;-64
2021/08/11 09:15:37;;;;;;;47.97;37.20;;;;;;;;;;5071549;28;20020;-65
2021/08/11 09:18:33;;;;;;;46.55;36.42;;;;;;;;;;5070746;28;20031;-64
2021/08/11 09:20:59;;;;;;;45.67;37.75;;;;;;;;;;5049540;28;20021;-65
2021/08/11 09:23:35;;;;;;;48.08;39.35;;;;;;;;;;5071750;28;20542;-64
2021/08/11 09:26:02;;;;;;;45.42;37.45;;;;;;;;;;5069693;28;20074;-64
2021/08/11 09:28:29;;;;;;;48.08;39.92;;;;;;;;;;5070007;28;20032;-65
2021/08/11 09:30:56;;;;;;;50.08;41.50;;;;;;;;;;5070399;28;20039;-65
2021/08/11 09:33:27;;;;;;;46.95;40.35;;;;;;;;;;5071802;28;20078;-65
2021/08/11 09:35:54;;;;;;;49.85;39.83;;;;;;;;;;5071180;28;20056;-65
2021/08/11 09:38:21;;;;;;;46.72;39.30;;;;;;;;;;5070192;28;20016;-65
2021/08/11 09:40:48;;;;;;;50.35;40.45;;;;;;;;;;5071250;28;20380;-65
2021/08/11 09:43:18;;;;;;;47.45;39.38;;;;;;;;;;5071691;28;20527;-64
2021/08/11 09:45:45;;;;;;;46.38;39.00;;;;;;;;;;5069730;28;20032;-65
2021/08/11 09:48:11;;;;;;;45.50;39.20;;;;;;;;;;5071635;28;20070;-65
2021/08/11 09:50:38;;;;;;;43.28;38.00;;;;;;;;;;5071100;28;20031;-64
2021/08/11 09:53:05;;;;;;;49.17;39.60;;;;;;;;;;5070995;28;20499;-65
2021/08/11 09:55:51;;;;;;;46.22;38.80;;;;;;;;;;5069062;28;20068;-64
2021/08/11 09:58:20;;;;;;;47.42;37.38;;;;;;;;;;5070366;28;20112;-65
2021/08/11 10:00:46;;;;;;;42.75;35.92;;;;;;;;;;5067363;28;20083;-64
2021/08/11 10:03:12;;;;;;;46.70;38.83;;;;;;;;;;5070640;28;20055;-64
2021/08/11 10:05:38;;;;;;;49.40;40.85;;;;;;;;;;5070270;28;20364;-65
2021/08/11 10:08:05;;;;;;;44.97;37.50;;;;;;;;;;5069724;28;20373;-65
2021/08/11 10:10:50;;;;;;;41.10;35.78;;;;;;;;;;5071091;28;20036;-64
2021/08/11 10:13:17;;;;;;;39.75;33.50;;;;;;;;;;5069716;28;20048;-65
2021/08/11 10:15:44;;;;;;;41.65;35.45;;;;;;;;;;5069912;28;20025;-64
2021/08/11 10:18:11;;;;;;;43.30;38.63;;;;;;;;;;5070753;28;20090;-65
2021/08/11 10:20:38;;;;;;;46.95;38.38;;;;;;;;;;5070532;28;20016;-66
2021/08/11 10:23:05;;;;;;;42.20;35.13;;;;;;;;;;5070126;28;20024;-65
2021/08/11 10:25:31;;;;;;;41.22;36.72;;;;;;;;;;5070182;28;20435;-64
2021/08/11 10:27:57;;;;;;;43.17;36.63;;;;;;;;;;5070568;28;20020;-64
2021/08/11 10:30:23;;;;;;;38.38;33.58;;;;;;;;;;5070309;28;20086;-64
2021/08/11 10:32:50;;;;;;;43.13;34.92;;;;;;;;;;5070721;28;20032;-66
2021/08/11 10:35:16;;;;;;;37.72;33.70;;;;;;;;;;5069495;28;20406;-65
2021/08/11 10:37:44;;;;;;;36.65;31.27;;;;;;;;;;5070180;28;20112;-65
2021/08/11 10:40:10;;;;;;;37.65;32.30;;;;;;;;;;5070149;28;20385;-66
2021/08/11 10:42:36;;;;;;;35.17;30.63;;;;;;;;;;5068507;28;20104;-65
2021/08/11 10:45:02;;;;;;;35.92;31.80;;;;;;;;;;5069784;28;20060;-66
2021/08/11 10:47:35;;;;;;;31.92;28.35;;;;;;;;;;5069435;28;20427;-64
2021/08/11 10:50:05;;;;;;;33.25;29.60;;;;;;;;;;5068490;28;20058;-66
2021/08/11 10:52:32;;;;;;;34.17;28.77;;;;;;;;;;5070084;28;20029;-65
2021/08/11 10:54:59;;;;;;;37.53;33.05;;;;;;;;;;5069942;28;20393;-65
2021/08/11 10:57:35;;;;;;;34.20;30.50;;;;;;;;;;5067767;28;20072;-65
2021/08/11 11:00:01;;;;;;;33.05;29.60;;;;;;;;;;5068292;28;20056;-63
2021/08/11 11:02:42;;;;;;;34.20;30.50;;;;;;;;;;5070197;28;20036;-64
2021/08/11 11:05:31;;;;;;;36.15;30.20;;;;;;;;;;5068992;28;20112;-66
2021/08/11 11:07:57;;;;;;;;;;;;;;;;;;5053663;28;20400;-65
2021/08/11 11:10:24;;;;;;;34.28;30.50;;;;;;;;;;5068935;28;19905;-66
2021/08/11 11:12:50;;;;;;;35.65;31.38;;;;;;;;;;5070177;28;20388;-65
2021/08/11 11:15:16;;;;;;;33.42;29.80;;;;;;;;;;5068989;28;20076;-63
2021/08/11 11:18:01;;;;;;;36.60;32.03;;;;;;;;;;5069657;28;20028;-64
2021/08/11 11:20:27;;;;;;;33.13;28.92;;;;;;;;;;5069480;28;20052;-64
2021/08/11 11:22:57;;;;;;;33.22;28.38;;;;;;;;;;5068688;28;20112;-66
2021/08/11 11:25:43;;;;;;;29.55;25.95;;;;;;;;;;5069208;28;20366;-64
2021/08/11 11:28:09;;;;;;;39.38;33.38;;;;;;;;;;5069458;28;20093;-62
2021/08/11 11:30:36;;;;;;;35.58;31.60;;;;;;;;;;5069307;28;20536;-65
2021/08/11 11:33:17;;;;;;;35.10;31.25;;;;;;;;;;5069563;28;20480;-65
2021/08/11 11:35:44;;;;;;;34.78;31.05;;;;;;;;;;5072317;28;20040;-63
2021/08/11 11:38:14;;;;;;;33.45;28.85;;;;;;;;;;5071819;28;20035;-66
2021/08/11 11:40:55;;;;;;;32.17;28.52;;;;;;;;;;5073358;28;20021;-62
2021/08/11 11:43:24;;;;;;;33.25;29.17;;;;;;;;;;5073235;28;20425;-63
2021/08/11 11:45:50;;;;;;;32.05;28.67;;;;;;;;;;5072626;28;20029;-66
2021/08/11 11:48:17;;;;;;;31.10;27.70;;;;;;;;;;5073236;28;20129;-66
2021/08/11 11:50:45;;;;;;;35.05;28.98;;;;;;;;;;5071453;28;20512;-66
2021/08/11 11:53:40;;;;;;;32.03;28.55;;;;;;;;;;5071567;28;20031;-66
2021/08/11 11:56:13;;;;;;;32.92;29.42;;;;;;;;;;5054973;28;20047;-65
2021/08/11 11:58:43;;;;;;;33.65;30.15;;;;;;;;;;5071913;28;20029;-64
2021/08/11 12:01:11;;;;;;;32.90;29.40;;;;;;;;;;5087582;22;20048;-64
2021/08/11 12:03:39;;;;;;;31.65;27.70;;;;;;;;;;5056319;28;20020;-66
2021/08/11 12:06:05;;;;;;;31.17;27.83;;;;;;;;;;5073771;28;20039;-62
2021/08/11 12:08:32;;;;;;;31.50;28.20;;;;;;;;;;5074066;28;20031;-62
2021/08/11 12:11:12;;;;;;;30.73;27.38;;;;;;;;;;5073996;28;20016;-62
2021/08/11 12:13:49;;;;;;;30.58;27.33;;;;;;;;;;5073982;28;20028;-62
2021/08/11 12:16:16;;;;;;;27.98;25.02;;;;;;;;;;5072085;28;20044;-63
2021/08/11 12:18:45;;;;;;;27.40;24.55;;;;;;;;;;5074268;28;20047;-63
2021/08/11 12:21:11;;;;;;;26.63;23.85;;;;;;;;;;5074216;28;20058;-64
2021/08/11 12:23:37;;;;;;;26.25;23.45;;;;;;;;;;5072573;28;20024;-63
2021/08/11 12:26:05;;;;;;;25.67;23.00;;;;;;;;;;5073481;28;20484;-63
2021/08/11 12:28:45;;;;;;;;;;;;;;;;;;5074763;28;20082;-66
2021/08/11 12:31:19;;;;;;;26.50;23.80;;;;;;;;;;5072352;28;19908;-63
2021/08/11 12:33:47;;;;;;;26.40;23.42;;;;;;;;;;5073788;28;20078;-64
2021/08/11 12:36:18;;;;;;;26.17;23.30;;;;;;;;;;5071469;28;20082;-64
2021/08/11 12:38:56;;;;;;;25.58;22.88;;;;;;;;;;5073556;28;20111;-63
2021/08/11 12:41:24;;;;;;;25.23;22.48;;;16.50;99.90;;;;;;5073052;28;20032;-63
2021/08/11 12:43:51;;;;;;;24.42;21.90;;;;;;;;;;5073131;28;20021;-63
2021/08/11 12:46:17;;;;;;;26.00;23.20;;;;;;;;;;5072127;28;20031;-63
2021/08/11 12:48:43;;;;;;;26.88;24.02;;;;;;;;;;5071898;28;20035;-63
2021/08/11 12:51:23;;;;;;;26.35;23.65;;;;;;;;;;5073375;28;20044;-63
2021/08/11 12:54:03;;;;;;;26.52;23.67;;;;;;;;;;5071655;28;20029;-63
2021/08/11 12:56:29;;;;;;;27.50;24.60;;;;;;;;;;5070532;28;20060;-63
2021/08/11 12:59:05;;;;;;;26.58;23.50;;;;;;;;;;5072285;28;20101;-62
2021/08/11 13:01:32;;;;;;;27.67;24.77;;;;;;;;;;5072684;28;20029;-66
2021/08/11 13:03:59;;;;;;;26.30;23.60;;;;;;;;;;5071188;28;20020;-66
2021/08/11 13:06:51;;;;;;;25.73;23.08;;;;;;;;;;5072090;28;20032;-66
2021/08/11 13:09:27;;;;;;;25.80;23.20;;;;;;;;;;5066849;28;20037;-66
2021/08/11 13:11:58;;;;;;;26.05;23.45;;;;;;;;;;5071271;28;20024;-65
2021/08/11 13:14:42;;;;;;;26.00;23.30;;;;;;;;;;5071298;28;20046;-65
2021/08/11 13:17:08;;;;;;;25.15;22.65;;;;;;;;;;5070335;28;20387;-67
2021/08/11 13:19:34;;;;;;;26.20;23.60;;;;;;;;;;5072413;28;20024;-66
2021/08/11 13:22:00;;;;;;;26.88;23.92;;;;;;;;;;5072270;28;20055;-66
2021/08/11 13:24:26;;;;;;;26.67;23.98;;;;;;;;;;5072294;28;20060;-66
2021/08/11 13:26:56;;;;;;;26.40;23.65;;;;;;;;;;5071926;28;20032;-66
2021/08/11 13:29:23;;;;;;;26.65;23.92;;;;;;;;;;5071008;28;20073;-66
2021/08/11 13:31:49;;;;;;;26.85;24.10;;;;;;;;;;5072321;28;20055;-66
2021/08/11 13:34:14;;;;;;;26.40;23.73;;;31.30;98.30;;;;;;5071881;28;20063;-66
2021/08/11 13:36:40;;;;;;;26.50;23.90;;;31.80;97.80;;;;;;5069779;28;20036;-66
2021/08/11 13:39:05;;;;;;;27.33;24.52;;;32.40;97.20;;;;;;5070495;28;20195;-65
2021/08/11 13:41:31;;;;;;;26.40;23.77;;;31.60;97.10;;;;;;5072020;28;20028;-66
2021/08/11 13:43:56;;;;;;;27.48;24.83;;;31.90;98.20;;;;;;5072128;28;20025;-66
2021/08/11 13:46:22;;;;;;;28.80;26.00;;;;;;;;;;5071220;28;20028;-66
2021/08/11 13:48:48;;;;;;;27.25;24.65;;;;;;;;;;5070769;28;20031;-66
2021/08/11 13:51:14;;;;;;;26.50;23.83;;;;;;;;;;5071706;28;20028;-67
2021/08/11 13:53:40;;;;;;;26.83;24.25;;;;;;;;;;5071570;28;20035;-66
2021/08/11 13:56:09;;;;;;;25.77;23.27;;;;;;;;;;5070389;28;20040;-65
2021/08/11 13:58:35;;;;;;;25.88;23.27;;;;;;;;;;5071652;28;20020;-66
2021/08/11 14:01:01;;;;;;;25.92;23.42;;;;;;;;;;5069097;28;20036;-65
2021/08/11 14:03:27;;;;;;;25.73;23.23;;;;;;;;;;5069947;28;20028;-65
2021/08/11 14:05:53;;;;;;;26.02;23.40;;;;;;;;;;5070854;28;20614;-66
2021/08/11 14:08:19;;;;;;;25.63;23.02;;;;;;;;;;5071166;28;20095;-66
2021/08/11 14:10:45;;;;;;;26.27;23.58;;;;;;;;;;5070164;28;20043;-65
2021/08/11 14:13:11;;;;;;;27.45;24.63;;;;;;;;;;5070277;28;20067;-65
2021/08/11 14:15:37;;;;;;;26.70;24.20;;;;;;;;;;5070902;28;20527;-72
2021/08/11 14:18:04;;;;;;;28.20;25.30;;;;;;;;;;5072149;28;20027;-65